createdAt,value
2023-02-25T00:01:10.811Z,5.55
2023-02-25T00:05:14.372Z,5.70
2023-02-25T00:09:17.164Z,5.47
2023-02-25T00:13:21.270Z,5.85
2023-02-25T00:17:24.327Z,4.30
2023-02-25T00:21:29.391Z,4.65
2023-02-25T00:25:32.206Z,5.25
2023-02-25T00:29:36.378Z,4.40
2023-02-25T00:33:41.798Z,4.57
2023-02-25T00:37:44.861Z,4.47
2023-02-25T00:41:47.753Z,3.53
2023-02-25T00:45:51.904Z,4.00
2023-02-25T00:49:54.736Z,3.70
2023-02-25T00:53:58.635Z,3.70
2023-02-25T00:58:02.333Z,4.03
2023-02-25T01:02:06.743Z,3.90
2023-02-25T01:06:09.815Z,4.30
2023-02-25T01:10:12.912Z,3.53
2023-02-25T01:14:17.663Z,4.47
2023-02-25T01:18:21.833Z,3.47
2023-02-25T01:22:25.355Z,3.25
2023-02-25T01:26:30.834Z,4.18
2023-02-25T01:30:33.677Z,4.05
2023-02-25T01:34:37.949Z,3.60
2023-02-25T01:38:40.711Z,3.80
2023-02-25T01:42:44.511Z,3.80
2023-02-25T01:46:49.114Z,3.97
2023-02-25T01:50:56.539Z,3.00
2023-02-25T01:55:00.043Z,3.03
2023-02-25T01:59:03.590Z,3.15
2023-02-25T02:03:15.740Z,2.50
2023-02-25T02:07:20.056Z,3.10
2023-02-25T02:11:22.894Z,2.45
2023-02-25T02:15:26.014Z,2.40
2023-02-25T02:19:39.885Z,2.55
2023-02-25T02:24:05.470Z,2.25
2023-02-25T02:28:48.000Z,2.60
2023-02-25T02:32:57.960Z,2.67
2023-02-25T02:37:08.924Z,2.30
2023-02-25T02:41:20.939Z,1.80
2023-02-25T02:45:28.222Z,1.70
2023-02-25T02:49:37.760Z,1.90
2023-02-25T02:53:44.812Z,2.08
2023-02-25T02:57:47.982Z,2.47
2023-02-25T03:01:54.984Z,2.03
2023-02-25T03:05:59.235Z,1.70
2023-02-25T03:10:05.650Z,1.88
2023-02-25T03:18:19.235Z,1.23
2023-02-25T03:22:28.374Z,1.33
2023-02-25T03:26:33.274Z,1.77
2023-02-25T03:30:43.246Z,1.73
2023-02-25T03:34:49.679Z,1.70
2023-02-25T03:38:58.895Z,1.65
2023-02-25T03:43:08.514Z,1.98
2023-02-25T03:47:12.820Z,2.17
2023-02-25T03:51:22.623Z,2.40
2023-02-25T03:55:29.285Z,2.47
2023-02-25T03:59:32.125Z,2.30
2023-02-25T04:03:34.987Z,2.85
2023-02-25T04:07:38.815Z,3.03
2023-02-25T04:11:43.093Z,3.22
2023-02-25T04:15:45.987Z,3.55
2023-02-25T04:19:48.868Z,3.75
2023-02-25T04:23:51.712Z,3.53
2023-02-25T04:27:55.872Z,3.08
2023-02-25T04:31:58.907Z,2.83
2023-02-25T04:36:01.786Z,3.67
2023-02-25T04:40:11.295Z,3.65
2023-02-25T04:44:15.722Z,3.58
2023-02-25T04:48:24.076Z,4.43
2023-02-25T04:52:27.020Z,4.88
2023-02-25T04:56:29.921Z,5.07
2023-02-25T05:00:34.291Z,4.72
2023-02-25T05:04:38.033Z,5.40
2023-02-25T05:08:41.002Z,5.30
2023-02-25T05:12:43.805Z,5.82
2023-02-25T05:16:48.111Z,5.63
2023-02-25T05:20:50.938Z,5.25
2023-02-25T05:24:55.414Z,6.07
2023-02-25T05:28:58.691Z,5.97
2023-02-25T05:33:02.880Z,5.88
2023-02-25T05:37:05.803Z,6.25
2023-02-25T05:41:10.264Z,5.80
2023-02-25T05:45:13.107Z,5.93
2023-02-25T05:49:17.301Z,7.32
2023-02-25T05:53:20.383Z,6.15
2023-02-25T05:57:24.030Z,6.68
2023-02-25T06:01:29.431Z,7.05
2023-02-25T06:05:34.046Z,7.10
2023-02-25T06:09:36.905Z,7.15
2023-02-25T06:13:39.728Z,7.10
2023-02-25T06:17:42.643Z,7.43
2023-02-25T06:21:46.817Z,7.43
2023-02-25T06:25:49.633Z,6.88
2023-02-25T06:29:52.455Z,6.55
2023-02-25T06:33:56.010Z,7.57
2023-02-25T06:38:02.263Z,8.43
2023-02-25T06:46:10.416Z,6.80
2023-02-25T06:50:14.271Z,6.73
2023-02-25T06:54:18.805Z,7.78
2023-02-25T06:58:21.551Z,7.22
2023-02-25T07:02:24.246Z,7.15
2023-02-25T07:06:27.326Z,7.50
2023-02-25T07:10:31.477Z,7.40
2023-02-25T07:14:34.206Z,7.93
2023-02-25T07:18:36.991Z,7.22
2023-02-25T07:22:41.985Z,6.78
2023-02-25T07:26:46.089Z,7.25
2023-02-25T07:30:48.917Z,7.15
2023-02-25T07:34:51.729Z,7.28
2023-02-25T07:38:54.397Z,7.45
2023-02-25T07:42:58.544Z,6.95
2023-02-25T07:47:01.929Z,8.95
2023-02-25T07:51:09.715Z,5.78
2023-02-25T07:55:12.872Z,5.68
2023-02-25T07:59:17.059Z,6.32
2023-02-25T08:03:19.873Z,6.90
2023-02-25T08:07:22.686Z,6.22
2023-02-25T08:11:27.380Z,6.43
2023-02-25T08:15:32.291Z,6.45
2023-02-25T08:19:36.047Z,7.07
2023-02-25T08:23:38.965Z,5.47
2023-02-25T08:27:44.051Z,7.40
2023-02-25T08:31:48.970Z,7.07
2023-02-25T08:35:52.468Z,7.10
2023-02-25T08:39:56.714Z,6.72
2023-02-25T08:44:01.933Z,5.38
2023-02-25T08:48:07.450Z,5.20
2023-02-25T08:52:11.853Z,4.63
2023-02-25T08:56:16.223Z,4.05
2023-02-25T09:00:21.112Z,4.65
2023-02-25T09:04:25.656Z,3.97
2023-02-25T09:08:28.916Z,4.07
2023-02-25T09:12:31.670Z,5.03
2023-02-25T09:16:34.527Z,4.28
2023-02-25T09:20:38.932Z,3.65
2023-02-25T09:24:41.804Z,3.42
2023-02-25T09:28:44.573Z,19.92
2023-02-25T09:32:47.437Z,3.45
2023-02-25T09:36:51.612Z,2.92
2023-02-25T09:40:54.370Z,2.60
2023-02-25T09:45:01.675Z,2.30
2023-02-25T09:49:09.997Z,2.38
2023-02-25T09:53:19.000Z,4.25
2023-02-25T09:57:23.365Z,2.42
2023-02-25T10:01:34.339Z,2.08
2023-02-25T10:05:46.034Z,2.15
2023-02-25T10:09:54.915Z,2.10
2023-02-25T10:14:04.760Z,1.88
2023-02-25T10:18:24.561Z,1.80
2023-02-25T10:22:41.305Z,2.00
2023-02-25T10:30:58.355Z,1.58
2023-02-25T10:35:06.774Z,1.85
2023-02-25T10:39:12.121Z,1.92
2023-02-25T10:43:21.645Z,1.90
2023-02-25T10:47:34.825Z,1.83
2023-02-25T10:51:37.717Z,2.15
2023-02-25T10:55:54.807Z,2.03
2023-02-25T11:00:03.416Z,2.10
2023-02-25T11:04:11.929Z,1.30
2023-02-25T11:08:27.778Z,1.60
2023-02-25T11:12:40.376Z,1.17
2023-02-25T11:16:46.302Z,1.25
2023-02-25T11:20:52.121Z,0.98
2023-02-25T11:25:00.568Z,1.33
2023-02-25T11:29:08.726Z,2.15
2023-02-25T11:33:23.724Z,1.05
2023-02-25T11:37:36.478Z,1.67
2023-02-25T11:41:39.539Z,1.60
2023-02-25T11:45:52.585Z,1.45
2023-02-25T11:50:20.352Z,1.48
2023-02-25T11:54:31.259Z,1.60
2023-02-25T11:58:45.301Z,1.45
2023-02-25T12:02:59.797Z,1.63
2023-02-25T12:07:28.268Z,1.40
2023-02-25T12:12:03.413Z,1.10
2023-02-25T12:16:47.311Z,1.67
2023-02-25T12:21:30.868Z,1.75
2023-02-25T12:25:42.944Z,1.70
2023-02-25T12:30:04.397Z,1.70
2023-02-25T12:34:34.899Z,1.55
2023-02-25T12:39:06.896Z,1.10
2023-02-25T12:43:22.352Z,1.15
2023-02-25T12:47:34.846Z,1.77
2023-02-25T12:52:04.642Z,1.40
2023-02-25T12:56:30.339Z,1.00
2023-02-25T13:01:06.803Z,1.40
2023-02-25T13:05:49.550Z,1.90
2023-02-25T13:10:12.747Z,1.13
2023-02-25T13:14:37.641Z,2.00
2023-02-25T13:18:50.823Z,1.00
2023-02-25T13:23:08.980Z,1.00
2023-02-25T13:27:36.681Z,1.33
2023-02-25T13:31:49.592Z,1.02
2023-02-25T13:36:03.857Z,1.23
2023-02-25T13:40:27.060Z,1.63
2023-02-25T13:44:46.606Z,1.17
2023-02-25T13:49:00.028Z,1.48
2023-02-25T13:53:18.220Z,1.10
2023-02-25T13:57:36.219Z,0.98
2023-02-25T14:01:51.751Z,1.10
2023-02-25T14:06:04.282Z,1.20
2023-02-25T14:10:38.813Z,1.70
2023-02-25T14:15:05.928Z,3.78
2023-02-25T14:23:29.721Z,1.48
2023-02-25T14:27:42.936Z,1.63
2023-02-25T14:32:01.820Z,1.33
2023-02-25T14:36:23.128Z,1.00
2023-02-25T14:40:31.046Z,0.98
2023-02-25T14:44:41.518Z,1.33
2023-02-25T14:48:51.082Z,1.08
2023-02-25T14:53:20.925Z,1.13
2023-02-25T14:58:06.320Z,1.77
2023-02-25T15:02:47.769Z,1.60
2023-02-25T15:07:01.385Z,1.88
2023-02-25T15:11:35.368Z,3.72
2023-02-25T15:16:20.024Z,1.50
2023-02-25T15:20:45.417Z,2.42
2023-02-25T15:24:49.127Z,1.40
2023-02-25T15:28:52.444Z,0.70
2023-02-25T15:33:23.784Z,1.10
2023-02-25T15:37:35.827Z,1.08
2023-02-25T15:41:45.185Z,1.58
2023-02-25T15:45:49.018Z,0.90
2023-02-25T15:49:53.006Z,0.70
2023-02-25T15:53:57.795Z,0.80
2023-02-25T15:58:00.853Z,0.77
2023-02-25T16:02:03.670Z,1.10
2023-02-25T16:06:12.519Z,0.80
2023-02-25T16:10:26.398Z,0.47
2023-02-25T16:14:31.280Z,1.17
2023-02-25T16:18:37.684Z,2.08
2023-02-25T16:26:57.831Z,1.15
2023-02-25T16:31:05.379Z,1.42
2023-02-25T16:35:11.276Z,1.40
2023-02-25T16:39:19.835Z,1.35
2023-02-25T16:43:27.802Z,1.05
2023-02-25T16:47:32.816Z,1.10
2023-02-25T16:51:38.179Z,1.38
2023-02-25T16:55:41.749Z,1.00
2023-02-25T16:59:46.801Z,0.90
2023-02-25T17:03:49.659Z,0.98
2023-02-25T17:07:55.288Z,1.40
2023-02-25T17:12:03.666Z,1.23
2023-02-25T17:16:10.643Z,15.35
2023-02-25T17:20:18.085Z,17.00
2023-02-25T17:24:25.799Z,22.70
2023-02-25T17:28:33.827Z,47.72
2023-02-25T17:32:38.035Z,10.50
2023-02-25T17:36:41.235Z,7.55
2023-02-25T17:40:44.738Z,5.93
2023-02-25T17:44:47.542Z,1.90
2023-02-25T17:48:55.879Z,1.48
2023-02-25T17:52:59.382Z,1.55
2023-02-25T17:57:07.277Z,2.03
2023-02-25T18:01:23.884Z,1.10
2023-02-25T18:09:38.941Z,0.75
2023-02-25T18:13:41.788Z,1.10
2023-02-25T18:17:49.878Z,2.15
2023-02-25T18:21:54.220Z,1.48
2023-02-25T18:26:13.593Z,0.93
2023-02-25T18:30:19.980Z,1.23
2023-02-25T18:38:27.994Z,2.15
2023-02-25T18:42:30.755Z,1.60
2023-02-25T18:46:33.509Z,1.60
2023-02-25T18:50:36.319Z,4.88
2023-02-25T18:54:41.560Z,2.65
2023-02-25T18:58:44.486Z,3.58
2023-02-25T19:02:49.827Z,1.42
2023-02-25T19:06:52.722Z,5.90
2023-02-25T19:10:57.128Z,6.28
2023-02-25T19:15:02.381Z,5.47
2023-02-25T19:19:05.162Z,3.60
2023-02-25T19:23:08.496Z,4.90
2023-02-25T19:27:19.993Z,6.03
2023-02-25T19:31:22.927Z,6.72
2023-02-25T19:35:25.996Z,3.92
2023-02-25T19:39:28.801Z,2.90
2023-02-25T19:43:33.324Z,3.42
2023-02-25T19:47:36.534Z,4.60
2023-02-25T19:51:39.639Z,3.70
2023-02-25T19:55:43.936Z,4.43
2023-02-25T19:59:48.241Z,5.28
2023-02-25T20:03:51.609Z,5.38
2023-02-25T20:07:54.490Z,3.90
2023-02-25T20:11:57.341Z,3.50
2023-02-25T20:16:03.231Z,6.10
2023-02-25T20:20:08.348Z,3.75
2023-02-25T20:24:11.254Z,7.03
2023-02-25T20:28:14.240Z,3.05
2023-02-25T20:32:18.539Z,4.80
2023-02-25T20:36:24.460Z,3.35
2023-02-25T20:40:27.791Z,1.92
2023-02-25T20:44:30.997Z,2.45
2023-02-25T20:48:35.420Z,1.90
2023-02-25T20:52:38.363Z,2.20
2023-02-25T20:56:42.287Z,1.95
2023-02-25T21:00:45.144Z,1.90
2023-02-25T21:04:50.296Z,2.17
2023-02-25T21:08:53.183Z,2.15
2023-02-25T21:12:57.171Z,2.05
2023-02-25T21:17:00.035Z,2.92
2023-02-25T21:21:07.607Z,2.45
2023-02-25T21:25:10.703Z,2.40
2023-02-25T21:29:14.469Z,1.77
2023-02-25T21:33:17.832Z,1.90
2023-02-25T21:37:21.970Z,2.40
2023-02-25T21:41:26.806Z,1.60
2023-02-25T21:45:29.710Z,2.05
2023-02-25T21:49:32.637Z,2.58
2023-02-25T21:53:39.600Z,2.47
2023-02-25T21:57:42.430Z,2.80
2023-02-25T22:01:45.275Z,3.25
2023-02-25T22:05:48.244Z,2.47
2023-02-25T22:09:52.748Z,2.58
2023-02-25T22:13:55.902Z,2.25
2023-02-25T22:17:58.646Z,2.17
2023-02-25T22:22:01.490Z,2.15
2023-02-25T22:26:08.525Z,2.10
2023-02-25T22:30:12.676Z,2.60
2023-02-25T22:34:15.609Z,2.83
2023-02-25T22:38:18.393Z,2.65
2023-02-25T22:42:23.588Z,2.70
2023-02-25T22:46:28.713Z,2.80
2023-02-25T22:50:31.712Z,2.85
2023-02-25T22:54:34.565Z,2.60
2023-02-25T22:58:40.613Z,2.53
2023-02-25T23:02:43.516Z,2.67
2023-02-25T23:06:46.862Z,2.58
2023-02-25T23:10:49.969Z,2.88
2023-02-25T23:14:54.322Z,2.40
2023-02-25T23:18:58.547Z,2.90
2023-02-25T23:23:04.611Z,2.50
2023-02-25T23:27:07.760Z,2.72
2023-02-25T23:31:19.358Z,3.15
2023-02-25T23:35:22.142Z,2.95
2023-02-25T23:39:25.006Z,2.92
2023-02-25T23:43:27.867Z,2.80
2023-02-25T23:47:32.121Z,2.70
2023-02-25T23:51:35.641Z,2.67
2023-02-25T23:55:38.448Z,2.75
2023-02-25T23:59:41.271Z,3.10
